Airfield :
LOGIN :

Register | Disclaimer

   EN    FR    IT 

 










Legend :    VFR   Marginal VFR   IFR   Intensive IFR   Very Intensive IFR
Visi :
Ceiling :
>= 8 km
>= 3000ft
5 to 8 km
1000 to 3000 ft
1500m to 5 km
500 to 1000 ft
800 to 1500m
200 to 500 ft
< 800m
< 200 ft
Symbols :   Thunderstorms  Fog  Heavy snow  Heavy precipitations  Wind > 20 kt
SIGMETs :     Misc.  Thunderstorms  Icing  Turbulence  Mountain Waves  Volcanic Ashes






- Airport Elevation : 17 ft
- IATA code : GRS


LIRS - Grosseto

CURRENT METAR :
  • 241355Z 13009KT 9999 FEW025 BKN060 15/09 Q1024 RMK BKN VIS MIN 9999 WIND THR03 13010KT WIND THR21 14009KT BLU

EXPIRED METARs :
  • 241255Z 14009KT 9999 SCT025 BKN060 15/09 Q1025 RMK BKN VIS MIN 9999 WIND THR03 14011KT WIND THR21 15007KT BLU
  • 241155Z 14009KT 9999 SCT024 BKN060 14/09 Q1026 RMK BKN VIS MIN 9999 WIND THR03 13008KT WIND THR21 14007KT BLU
  • 241055Z 04003KT 9999 SCT022 BKN060 12/09 Q1026 RMK BKN VIS MIN 9999 WIND THR03 07003KT WIND THR21 05004KT BLU

TAF TAF LIRS
Valid from the 24 at 12:00 until the 24 at 21:00 UTC


241100Z 2412/2421 13010KT 9999 SCT020 BKN060



MET'MAP, your aeronautical weather chart ! - Copyright ORBIFLY December 2007 - Disclaimer

ORBIFLY MET'MAP TEAM :

Programming & Development : Alexandra Zaïnal
Concept & original design : Baudouin d'Aumeries
Assistance for programming : Marc-Olivier Méhu
Technical & hardware support : Manuel Goepfert

Contact : metmap@orbifly.com




SOURCES & CREDITS :

   NOAA